Thor — WDC2707 — position and weather

sailwx.info

Track history (hours):
 
Tides and Currents Weather Stations Pressure Air Temp Water Temp Dewpoint Dewpoint Depression Visibility Wind Speed Wind Dir Waves Ship Positions

Thor

Owner: Kirby Inland Marine, LP, Houston, TX. More information available from US FCC via Universal Licensing System and Coast Guard Vessel Documentation Center.

Last reported at 2018-Apr-27 17:19 UTC. Time now 2018-Jun-18 15:45 UTC.
Position N 29°45' W 095°06'.
Warning: this ship's position is 51 days out of date.

Length 23 m; draft 3 m.

Type: . MMSI: 366996640.

Date/timePositionNaut miles runAvg speedWind from/ knotsBaromVisibWave heightAir tempDewpointWater temp
2018-Apr-27 17:19N 29°45' W 095°06'2 5.0
2018-Apr-27 17:00N 29°47' W 095°05'1 0.2
2018-Apr-27 13:02N 29°47' W 095°04'1 0.3
2018-Apr-27 09:32N 29°46' W 095°05'1 6.6
2018-Apr-27 09:27N 29°46' W 095°05'1 0.8
2018-Apr-27 08:43N 29°46' W 095°06'0 0.0
2018-Apr-27 08:30N 29°46' W 095°06'0 0.0
2018-Apr-27 08:00N 29°46' W 095°06'0 0.0
2018-Apr-27 03:50N 29°46' W 095°06'2 5.3
2018-Apr-27 03:22N 29°44' W 095°03'2 6.1
2018-Apr-27 02:59N 29°43' W 095°01'3 5.9
2018-Apr-27 02:30N 29°41' W 094°59'3 6.7
2018-Apr-27 02:00N 29°38' W 094°58'3 6.8
2018-Apr-27 01:30N 29°35' W 094°56'4 7.1
2018-Apr-27 01:00N 29°32' W 094°54'4 7.3
2018-Apr-27 00:30N 29°29' W 094°51'4 7.5
2018-Apr-26 23:58N 29°25' W 094°50'3 7.3
2018-Apr-26 23:30N 29°22' W 094°47'3 6.5
2018-Apr-26 22:59N 29°24' W 094°44'1 2.8
2018-Apr-26 22:30N 29°25' W 094°43'0 0.0
2018-Apr-26 21:59N 29°25' W 094°43'0 0.0
2018-Apr-26 21:29N 29°25' W 094°43'1 1.4
2018-Apr-26 20:59N 29°26' W 094°43'3 5.6
2018-Apr-26 20:29N 29°28' W 094°40'3 5.6
2018-Apr-26 19:58N 29°29' W 094°37'3 5.6
2018-Apr-26 19:29N 29°30' W 094°34'3 5.3
2018-Apr-26 18:55N 29°31' W 094°31'2 5.3
2018-Apr-26 18:28N 29°32' W 094°29'2 4.4
2018-Apr-26 17:59N 29°34' W 094°27'1 1.9
2018-Apr-26 17:17N 29°34' W 094°26'2 5.1
2018-Apr-26 16:59N 29°35' W 094°25'3 4.9
2018-Apr-26 16:27N 29°36' W 094°22'0 0.0
2018-Apr-26 16:00N 29°36' W 094°22'1 2.7
2018-Apr-26 15:30N 29°37' W 094°21'3 5.3
2018-Apr-26 15:00N 29°38' W 094°18'3 5.3
2018-Apr-26 14:30N 29°39' W 094°15'3 5.3
2018-Apr-26 14:00N 29°41' W 094°13'3 5.0
2018-Apr-26 13:30N 29°41' W 094°10'2 4.6
2018-Apr-26 13:00N 29°43' W 094°08'2 5.0
2018-Apr-26 12:30N 29°44' W 094°05'3 5.1
2018-Apr-26 12:00N 29°46' W 094°03'3 5.3
2018-Apr-26 11:30N 29°47' W 094°01'2 4.8
2018-Apr-26 11:00N 29°49' W 093°59'2 4.8
2018-Apr-26 10:30N 29°51' W 093°57'3 6.9
2018-Apr-26 10:00N 29°54' W 093°55'3 6.5
2018-Apr-26 09:30N 29°56' W 093°52'2 4.8
2018-Apr-26 09:00N 29°58' W 093°51'0 0.0
2018-Apr-26 08:30N 29°58' W 093°51'0 0.1
2018-Apr-26 08:00N 29°58' W 093°51'0 0.0
2018-Apr-26 07:30N 29°58' W 093°51'0 0.1
2018-Apr-26 06:59N 29°58' W 093°51'0 0.0
2018-Apr-26 06:30N 29°58' W 093°51'0 0.2
2018-Apr-26 06:00N 29°58' W 093°51'0 0.0
2018-Apr-26 05:30N 29°58' W 093°51'0 0.2
2018-Apr-26 04:59N 29°58' W 093°51'0 0.0
2018-Apr-26 04:29N 29°58' W 093°51'0 0.0
2018-Apr-26 03:59N 29°58' W 093°51'0 0.0
2018-Apr-26 03:29N 29°58' W 093°51'0 0.0
2018-Apr-26 02:59N 29°58' W 093°51'0 0.0
2018-Apr-26 02:29N 29°58' W 093°51'0 0.0
2018-Apr-26 01:59N 29°58' W 093°51'0 0.0
2018-Apr-26 01:29N 29°58' W 093°51'0 0.0
2018-Apr-26 00:59N 29°58' W 093°51'0 0.0
2018-Apr-26 00:29N 29°58' W 093°51'0 0.0
2018-Apr-25 23:59N 29°58' W 093°51'0 0.0
2018-Apr-25 23:29N 29°58' W 093°51'0 0.0
2018-Apr-25 22:59N 29°58' W 093°51'0 0.0
2018-Apr-25 22:29N 29°58' W 093°51'0 0.0
2018-Apr-25 21:59N 29°58' W 093°51'0 0.0
2018-Apr-25 21:29N 29°58' W 093°51'0 0.2
2018-Apr-25 20:58N 29°58' W 093°51'0 0.2
2018-Apr-25 20:30N 29°58' W 093°51'0 0.0
2018-Apr-25 20:00N 29°58' W 093°51'0 0.0
2018-Apr-25 19:30N 29°58' W 093°51'0 0.0
2018-Apr-25 19:00N 29°58' W 093°51'0 0.0
2018-Apr-25 18:30N 29°58' W 093°51'0 0.0
2018-Apr-25 18:00N 29°58' W 093°51'0 0.0
2018-Apr-25 17:30N 29°58' W 093°51'0 0.2
2018-Apr-25 16:58N 29°58' W 093°51'0 0.3
2018-Apr-25 16:30N 29°58' W 093°51'0 0.0
2018-Apr-25 16:00N 29°58' W 093°51'0 0.0
2018-Apr-25 15:30N 29°58' W 093°51'0 0.3
2018-Apr-25 15:00N 29°58' W 093°51'0 0.1
2018-Apr-25 14:30N 29°58' W 093°51'1 2.2
2018-Apr-25 14:00N 29°57' W 093°52'2 4.9
2018-Apr-25 13:30N 29°55' W 093°53'2 4.5
2018-Apr-25 13:00N 29°53' W 093°55'2 4.3
2018-Apr-25 12:30N 29°52' W 093°56'2 3.3
2018-Apr-25 12:00N 29°50' W 093°57'2 3.9
2018-Apr-25 11:30N 29°49' W 093°59'2 3.6
2018-Apr-25 11:00N 29°48' W 094°00'2 3.8
2018-Apr-25 10:30N 29°47' W 094°02'2 4.7
2018-Apr-25 10:00N 29°45' W 094°04'2 4.6
2018-Apr-25 09:30N 29°44' W 094°06'2 4.5
2018-Apr-25 09:00N 29°42' W 094°08'2 3.7
2018-Apr-25 08:30N 29°41' W 094°10'2 4.0
2018-Apr-25 08:00N 29°41' W 094°12'2 4.2
2018-Apr-25 07:30N 29°40' W 094°14'2 4.3
2018-Apr-25 07:00N 29°39' W 094°17'2 4.3
2018-Apr-25 06:30N 29°38' W 094°19'2 3.6
2018-Apr-25 06:00N 29°37' W 094°21'2 3.9
2018-Apr-25 05:30N 29°36' W 094°22'2 4.1
2018-Apr-25 05:00N 29°36' W 094°25'2 3.7
2018-Apr-25 04:30N 29°34' W 094°26'2 4.4
2018-Apr-25 04:00N 29°33' W 094°28'2 4.7
2018-Apr-25 03:30N 29°31' W 094°30'2 3.6
2018-Apr-25 02:59N 29°31' W 094°32'1 1.3
2018-Apr-25 02:30N 29°30' W 094°32'2 3.9
2018-Apr-25 02:00N 29°30' W 094°34'15 2.6
2018-Apr-24 20:10N 29°21' W 094°49'4 0.1
2018-Apr-22 19:08N 29°22' W 094°53'1 3.3
2018-Apr-22 18:56N 29°23' W 094°53'4 5.5
2018-Apr-22 18:17N 29°22' W 094°49'1 5.4
2018-Apr-22 18:00N 29°22' W 094°47'3 5.4
2018-Apr-22 17:30N 29°24' W 094°45'2 3.4
2018-Apr-22 17:00N 29°25' W 094°43'1 2.1
2018-Apr-22 16:18N 29°24' W 094°45'2 5.8
2018-Apr-22 15:58N 29°23' W 094°46'4 3.5
2018-Apr-22 14:47N 29°26' W 094°50'2 6.6
2018-Apr-22 14:30N 29°27' W 094°51'3 7.0
2018-Apr-22 14:00N 29°30' W 094°53'3 6.8
2018-Apr-22 13:30N 29°33' W 094°55'3 6.8
2018-Apr-22 13:00N 29°36' W 094°57'4 7.7
2018-Apr-22 12:30N 29°40' W 094°58'4 7.0
2018-Apr-22 12:00N 29°42' W 095°01'3 6.2
2018-Apr-22 11:27N 29°45' W 095°04'2 4.6
2018-Apr-22 10:58N 29°47' W 095°04'0 0.0
2018-Apr-22 00:34N 29°47' W 095°04'0 0.1
2018-Apr-22 00:30N 29°47' W 095°04'0 0.0
2018-Apr-22 00:00N 29°47' W 095°04'0 0.2
2018-Apr-21 23:06N 29°47' W 095°04'0 1.7
2018-Apr-21 22:59N 29°47' W 095°04'0 0.4
2018-Apr-21 22:28N 29°47' W 095°04'0 0.0
2018-Apr-21 14:51N 29°47' W 095°04'0 0.7
2018-Apr-21 14:29N 29°47' W 095°04'3 5.6
2018-Apr-21 13:59N 29°45' W 095°06'3 5.4
2018-Apr-21 13:25N 29°45' W 095°10'0 0.0
2018-Apr-21 05:12N 29°44' W 095°10'0 0.0
2018-Apr-21 04:51N 29°44' W 095°10'0 0.0
2018-Apr-21 04:05N 29°44' W 095°10'0 0.0
2018-Apr-21 03:56N 29°44' W 095°10'0 0.0
2018-Apr-21 03:29N 29°44' W 095°10'0 0.0
2018-Apr-21 02:57N 29°44' W 095°10'0 0.0
2018-Apr-20 23:55N 29°44' W 095°10'0 0.0
2018-Apr-19 22:39N 29°45' W 095°10'0 1.4
2018-Apr-19 22:30N 29°45' W 095°10'3 6.4
2018-Apr-19 22:00N 29°45' W 095°06'2 4.3
2018-Apr-19 21:30N 29°45' W 095°04'3 5.9
2018-Apr-19 21:00N 29°43' W 095°01'3 6.1
2018-Apr-19 20:30N 29°40' W 094°59'4 7.1
2018-Apr-19 20:00N 29°37' W 094°57'4 7.3
2018-Apr-19 19:30N 29°34' W 094°55'4 7.2
2018-Apr-19 19:00N 29°31' W 094°53'4 7.2
2018-Apr-19 18:30N 29°28' W 094°51'7 0.6
2018-Apr-19 06:50N 29°26' W 094°43'0 0.7
2018-Apr-19 06:30N 29°26' W 094°43'0 0.0
2018-Apr-19 05:59N 29°26' W 094°43'0 0.0
2018-Apr-19 05:28N 29°26' W 094°43'0 0.0
2018-Apr-19 04:49N 29°26' W 094°43'0 0.0
2018-Apr-19 04:30N 29°26' W 094°43'0 0.0
2018-Apr-19 04:00N 29°26' W 094°43'0 0.0
2018-Apr-18 10:46N 29°26' W 094°43'0 0.0
2018-Apr-18 10:30N 29°26' W 094°43'0 0.0
2018-Apr-18 08:51N 29°26' W 094°43'0 0.0
2018-Apr-18 08:24N 29°26' W 094°43'0 0.0
2018-Apr-18 07:56N 29°26' W 094°43'0 0.0
2018-Apr-18 07:30N 29°26' W 094°43'0 0.0
2018-Apr-18 07:00N 29°26' W 094°43'0 0.0
2018-Apr-18 06:30N 29°26' W 094°43'0 0.0
2018-Apr-18 04:51N 29°26' W 094°43'0 0.0
2018-Apr-18 04:29N 29°26' W 094°43'0 0.0
2018-Apr-18 03:38N 29°26' W 094°43'0 0.0
2018-Apr-18 03:26N 29°26' W 094°43'0 0.0
2018-Apr-18 03:00N 29°26' W 094°43'0 0.0
2018-Apr-18 02:08N 29°26' W 094°43'0 0.0
2018-Apr-17 22:55N 29°26' W 094°43'0 0.0
2018-Apr-17 21:59N 29°26' W 094°43'0 0.0
2018-Apr-17 21:17N 29°26' W 094°43'0 0.0
2018-Apr-17 21:00N 29°26' W 094°43'  
Track history (hours):
 
Tides and Currents Weather Stations Pressure Air Temp Water Temp Dewpoint Dewpoint Depression Visibility Wind Speed Wind Dir Waves Ship Positions

Thor

Owner: Kirby Inland Marine, LP, Houston, TX. More information available from US FCC via Universal Licensing System and Coast Guard Vessel Documentation Center.

Last reported at 2018-Apr-27 17:19 UTC. Time now 2018-Jun-18 15:45 UTC.
Position N 29°45' W 095°06'.
Warning: this ship's position is 51 days out of date.

Length 23 m; draft 3 m.

Type: . MMSI: 366996640.

Date/timePositionNaut miles runAvg speedWind from/ knotsBaromVisibWave heightAir tempDewpointWater temp
2018-Apr-27 17:19N 29°45' W 095°06'2 5.0
2018-Apr-27 17:00N 29°47' W 095°05'1 0.2
2018-Apr-27 13:02N 29°47' W 095°04'1 0.3
2018-Apr-27 09:32N 29°46' W 095°05'1 6.6
2018-Apr-27 09:27N 29°46' W 095°05'1 0.8
2018-Apr-27 08:43N 29°46' W 095°06'0 0.0
2018-Apr-27 08:30N 29°46' W 095°06'0 0.0
2018-Apr-27 08:00N 29°46' W 095°06'0 0.0
2018-Apr-27 03:50N 29°46' W 095°06'2 5.3
2018-Apr-27 03:22N 29°44' W 095°03'2 6.1
2018-Apr-27 02:59N 29°43' W 095°01'3 5.9
2018-Apr-27 02:30N 29°41' W 094°59'3 6.7
2018-Apr-27 02:00N 29°38' W 094°58'3 6.8
2018-Apr-27 01:30N 29°35' W 094°56'4 7.1
2018-Apr-27 01:00N 29°32' W 094°54'4 7.3
2018-Apr-27 00:30N 29°29' W 094°51'4 7.5
2018-Apr-26 23:58N 29°25' W 094°50'3 7.3
2018-Apr-26 23:30N 29°22' W 094°47'3 6.5
2018-Apr-26 22:59N 29°24' W 094°44'1 2.8
2018-Apr-26 22:30N 29°25' W 094°43'0 0.0
2018-Apr-26 21:59N 29°25' W 094°43'0 0.0
2018-Apr-26 21:29N 29°25' W 094°43'1 1.4
2018-Apr-26 20:59N 29°26' W 094°43'3 5.6
2018-Apr-26 20:29N 29°28' W 094°40'3 5.6
2018-Apr-26 19:58N 29°29' W 094°37'3 5.6
2018-Apr-26 19:29N 29°30' W 094°34'3 5.3
2018-Apr-26 18:55N 29°31' W 094°31'2 5.3
2018-Apr-26 18:28N 29°32' W 094°29'2 4.4
2018-Apr-26 17:59N 29°34' W 094°27'1 1.9
2018-Apr-26 17:17N 29°34' W 094°26'2 5.1
2018-Apr-26 16:59N 29°35' W 094°25'3 4.9
2018-Apr-26 16:27N 29°36' W 094°22'0 0.0
2018-Apr-26 16:00N 29°36' W 094°22'1 2.7
2018-Apr-26 15:30N 29°37' W 094°21'3 5.3
2018-Apr-26 15:00N 29°38' W 094°18'3 5.3
2018-Apr-26 14:30N 29°39' W 094°15'3 5.3
2018-Apr-26 14:00N 29°41' W 094°13'3 5.0
2018-Apr-26 13:30N 29°41' W 094°10'2 4.6
2018-Apr-26 13:00N 29°43' W 094°08'2 5.0
2018-Apr-26 12:30N 29°44' W 094°05'3 5.1
2018-Apr-26 12:00N 29°46' W 094°03'3 5.3
2018-Apr-26 11:30N 29°47' W 094°01'2 4.8
2018-Apr-26 11:00N 29°49' W 093°59'2 4.8
2018-Apr-26 10:30N 29°51' W 093°57'3 6.9
2018-Apr-26 10:00N 29°54' W 093°55'3 6.5
2018-Apr-26 09:30N 29°56' W 093°52'2 4.8
2018-Apr-26 09:00N 29°58' W 093°51'0 0.0
2018-Apr-26 08:30N 29°58' W 093°51'0 0.1
2018-Apr-26 08:00N 29°58' W 093°51'0 0.0
2018-Apr-26 07:30N 29°58' W 093°51'0 0.1
2018-Apr-26 06:59N 29°58' W 093°51'0 0.0
2018-Apr-26 06:30N 29°58' W 093°51'0 0.2
2018-Apr-26 06:00N 29°58' W 093°51'0 0.0
2018-Apr-26 05:30N 29°58' W 093°51'0 0.2
2018-Apr-26 04:59N 29°58' W 093°51'0 0.0
2018-Apr-26 04:29N 29°58' W 093°51'0 0.0
2018-Apr-26 03:59N 29°58' W 093°51'0 0.0
2018-Apr-26 03:29N 29°58' W 093°51'0 0.0
2018-Apr-26 02:59N 29°58' W 093°51'0 0.0
2018-Apr-26 02:29N 29°58' W 093°51'0 0.0
2018-Apr-26 01:59N 29°58' W 093°51'0 0.0
2018-Apr-26 01:29N 29°58' W 093°51'0 0.0
2018-Apr-26 00:59N 29°58' W 093°51'0 0.0
2018-Apr-26 00:29N 29°58' W 093°51'0 0.0
2018-Apr-25 23:59N 29°58' W 093°51'0 0.0
2018-Apr-25 23:29N 29°58' W 093°51'0 0.0
2018-Apr-25 22:59N 29°58' W 093°51'0 0.0
2018-Apr-25 22:29N 29°58' W 093°51'0 0.0
2018-Apr-25 21:59N 29°58' W 093°51'0 0.0
2018-Apr-25 21:29N 29°58' W 093°51'0 0.2
2018-Apr-25 20:58N 29°58' W 093°51'0 0.2
2018-Apr-25 20:30N 29°58' W 093°51'0 0.0
2018-Apr-25 20:00N 29°58' W 093°51'0 0.0
2018-Apr-25 19:30N 29°58' W 093°51'0 0.0
2018-Apr-25 19:00N 29°58' W 093°51'0 0.0
2018-Apr-25 18:30N 29°58' W 093°51'0 0.0
2018-Apr-25 18:00N 29°58' W 093°51'0 0.0
2018-Apr-25 17:30N 29°58' W 093°51'0 0.2
2018-Apr-25 16:58N 29°58' W 093°51'0 0.3
2018-Apr-25 16:30N 29°58' W 093°51'0 0.0
2018-Apr-25 16:00N 29°58' W 093°51'0 0.0
2018-Apr-25 15:30N 29°58' W 093°51'0 0.3
2018-Apr-25 15:00N 29°58' W 093°51'0 0.1
2018-Apr-25 14:30N 29°58' W 093°51'1 2.2
2018-Apr-25 14:00N 29°57' W 093°52'2 4.9
2018-Apr-25 13:30N 29°55' W 093°53'2 4.5
2018-Apr-25 13:00N 29°53' W 093°55'2 4.3
2018-Apr-25 12:30N 29°52' W 093°56'2 3.3
2018-Apr-25 12:00N 29°50' W 093°57'2 3.9
2018-Apr-25 11:30N 29°49' W 093°59'2 3.6
2018-Apr-25 11:00N 29°48' W 094°00'2 3.8
2018-Apr-25 10:30N 29°47' W 094°02'2 4.7
2018-Apr-25 10:00N 29°45' W 094°04'2 4.6
2018-Apr-25 09:30N 29°44' W 094°06'2 4.5
2018-Apr-25 09:00N 29°42' W 094°08'2 3.7
2018-Apr-25 08:30N 29°41' W 094°10'2 4.0
2018-Apr-25 08:00N 29°41' W 094°12'2 4.2
2018-Apr-25 07:30N 29°40' W 094°14'2 4.3
2018-Apr-25 07:00N 29°39' W 094°17'2 4.3
2018-Apr-25 06:30N 29°38' W 094°19'2 3.6
2018-Apr-25 06:00N 29°37' W 094°21'2 3.9
2018-Apr-25 05:30N 29°36' W 094°22'2 4.1
2018-Apr-25 05:00N 29°36' W 094°25'2 3.7
2018-Apr-25 04:30N 29°34' W 094°26'2 4.4
2018-Apr-25 04:00N 29°33' W 094°28'2 4.7
2018-Apr-25 03:30N 29°31' W 094°30'2 3.6
2018-Apr-25 02:59N 29°31' W 094°32'1 1.3
2018-Apr-25 02:30N 29°30' W 094°32'2 3.9
2018-Apr-25 02:00N 29°30' W 094°34'15 2.6
2018-Apr-24 20:10N 29°21' W 094°49'4 0.1
2018-Apr-22 19:08N 29°22' W 094°53'1 3.3
2018-Apr-22 18:56N 29°23' W 094°53'4 5.5
2018-Apr-22 18:17N 29°22' W 094°49'1 5.4
2018-Apr-22 18:00N 29°22' W 094°47'3 5.4
2018-Apr-22 17:30N 29°24' W 094°45'2 3.4
2018-Apr-22 17:00N 29°25' W 094°43'1 2.1
2018-Apr-22 16:18N 29°24' W 094°45'2 5.8
2018-Apr-22 15:58N 29°23' W 094°46'4 3.5
2018-Apr-22 14:47N 29°26' W 094°50'2 6.6
2018-Apr-22 14:30N 29°27' W 094°51'3 7.0
2018-Apr-22 14:00N 29°30' W 094°53'3 6.8
2018-Apr-22 13:30N 29°33' W 094°55'3 6.8
2018-Apr-22 13:00N 29°36' W 094°57'4 7.7
2018-Apr-22 12:30N 29°40' W 094°58'4 7.0
2018-Apr-22 12:00N 29°42' W 095°01'3 6.2
2018-Apr-22 11:27N 29°45' W 095°04'2 4.6
2018-Apr-22 10:58N 29°47' W 095°04'0 0.0
2018-Apr-22 00:34N 29°47' W 095°04'0 0.1
2018-Apr-22 00:30N 29°47' W 095°04'0 0.0
2018-Apr-22 00:00N 29°47' W 095°04'0 0.2
2018-Apr-21 23:06N 29°47' W 095°04'0 1.7
2018-Apr-21 22:59N 29°47' W 095°04'0 0.4
2018-Apr-21 22:28N 29°47' W 095°04'0 0.0
2018-Apr-21 14:51N 29°47' W 095°04'0 0.7
2018-Apr-21 14:29N 29°47' W 095°04'3 5.6
2018-Apr-21 13:59N 29°45' W 095°06'3 5.4
2018-Apr-21 13:25N 29°45' W 095°10'0 0.0
2018-Apr-21 05:12N 29°44' W 095°10'0 0.0
2018-Apr-21 04:51N 29°44' W 095°10'0 0.0
2018-Apr-21 04:05N 29°44' W 095°10'0 0.0
2018-Apr-21 03:56N 29°44' W 095°10'0 0.0
2018-Apr-21 03:29N 29°44' W 095°10'0 0.0
2018-Apr-21 02:57N 29°44' W 095°10'0 0.0
2018-Apr-20 23:55N 29°44' W 095°10'0 0.0
2018-Apr-19 22:39N 29°45' W 095°10'0 1.4
2018-Apr-19 22:30N 29°45' W 095°10'3 6.4
2018-Apr-19 22:00N 29°45' W 095°06'2 4.3
2018-Apr-19 21:30N 29°45' W 095°04'3 5.9
2018-Apr-19 21:00N 29°43' W 095°01'3 6.1
2018-Apr-19 20:30N 29°40' W 094°59'4 7.1
2018-Apr-19 20:00N 29°37' W 094°57'4 7.3
2018-Apr-19 19:30N 29°34' W 094°55'4 7.2
2018-Apr-19 19:00N 29°31' W 094°53'4 7.2
2018-Apr-19 18:30N 29°28' W 094°51'7 0.6
2018-Apr-19 06:50N 29°26' W 094°43'0 0.7
2018-Apr-19 06:30N 29°26' W 094°43'0 0.0
2018-Apr-19 05:59N 29°26' W 094°43'0 0.0
2018-Apr-19 05:28N 29°26' W 094°43'0 0.0
2018-Apr-19 04:49N 29°26' W 094°43'0 0.0
2018-Apr-19 04:30N 29°26' W 094°43'0 0.0
2018-Apr-19 04:00N 29°26' W 094°43'0 0.0
2018-Apr-18 10:46N 29°26' W 094°43'0 0.0
2018-Apr-18 10:30N 29°26' W 094°43'0 0.0
2018-Apr-18 08:51N 29°26' W 094°43'0 0.0
2018-Apr-18 08:24N 29°26' W 094°43'0 0.0
2018-Apr-18 07:56N 29°26' W 094°43'0 0.0
2018-Apr-18 07:30N 29°26' W 094°43'0 0.0
2018-Apr-18 07:00N 29°26' W 094°43'0 0.0
2018-Apr-18 06:30N 29°26' W 094°43'0 0.0
2018-Apr-18 04:51N 29°26' W 094°43'0 0.0
2018-Apr-18 04:29N 29°26' W 094°43'0 0.0
2018-Apr-18 03:38N 29°26' W 094°43'0 0.0
2018-Apr-18 03:26N 29°26' W 094°43'0 0.0
2018-Apr-18 03:00N 29°26' W 094°43'0 0.0
2018-Apr-18 02:08N 29°26' W 094°43'0 0.0
2018-Apr-17 22:55N 29°26' W 094°43'0 0.0
2018-Apr-17 21:59N 29°26' W 094°43'0 0.0
2018-Apr-17 21:17N 29°26' W 094°43'0 0.0
2018-Apr-17 21:00N 29°26' W 094°43'  

Dump ship's entire track history